createdAt,value
2018-08-18T00:01:51.774Z,5.93
2018-08-18T00:04:20.240Z,5.37
2018-08-18T00:06:48.398Z,5.50
2018-08-18T00:09:16.017Z,5.53
2018-08-18T00:11:43.536Z,5.53
2018-08-18T00:14:11.059Z,5.40
2018-08-18T00:16:38.637Z,6.27
2018-08-18T00:19:06.162Z,6.12
2018-08-18T00:21:33.717Z,6.37
2018-08-18T00:24:01.308Z,5.50
2018-08-18T00:26:28.867Z,6.30
2018-08-18T00:28:56.486Z,6.50
2018-08-18T00:31:24.017Z,6.10
2018-08-18T00:33:51.534Z,6.40
2018-08-18T00:36:19.080Z,5.90
2018-08-18T00:38:46.649Z,5.93
2018-08-18T00:41:14.257Z,6.67
2018-08-18T00:43:41.780Z,6.23
2018-08-18T00:46:09.549Z,5.87
2018-08-18T00:48:37.117Z,6.60
2018-08-18T00:51:04.715Z,6.63
2018-08-18T00:53:33.418Z,6.50
2018-08-18T00:56:00.990Z,6.07
2018-08-18T00:58:28.535Z,6.70
2018-08-18T01:00:56.144Z,6.65
2018-08-18T01:03:23.741Z,5.87
2018-08-18T01:05:51.331Z,7.20
2018-08-18T01:08:18.884Z,7.43
2018-08-18T01:10:46.467Z,6.90
2018-08-18T01:13:14.139Z,6.80
2018-08-18T01:15:41.770Z,7.23
2018-08-18T01:18:09.248Z,7.03
2018-08-18T01:20:36.879Z,7.70
2018-08-18T01:23:04.405Z,6.97
2018-08-18T01:25:32.004Z,7.50
2018-08-18T01:27:59.512Z,6.27
2018-08-18T01:30:27.070Z,6.47
2018-08-18T01:32:54.662Z,7.40
2018-08-18T01:35:22.197Z,7.30
2018-08-18T01:37:49.779Z,6.90
2018-08-18T01:40:17.320Z,7.40
2018-08-18T01:42:44.882Z,7.80
2018-08-18T01:45:12.754Z,7.13
2018-08-18T01:47:40.345Z,7.60
2018-08-18T01:50:07.890Z,7.80
2018-08-18T01:52:35.582Z,7.97
2018-08-18T01:55:03.127Z,7.95
2018-08-18T01:57:30.708Z,8.10
2018-08-18T01:59:58.224Z,7.97
2018-08-18T02:02:25.797Z,8.27
2018-08-18T02:04:53.378Z,7.87
2018-08-18T02:07:20.936Z,8.17
2018-08-18T02:09:48.512Z,7.53
2018-08-18T02:12:16.038Z,7.37
2018-08-18T02:14:43.629Z,7.60
2018-08-18T02:17:15.108Z,7.13
2018-08-18T02:19:42.679Z,7.07
2018-08-18T02:22:10.401Z,8.50
2018-08-18T02:24:37.972Z,7.93
2018-08-18T02:27:05.495Z,8.02
2018-08-18T02:29:33.336Z,7.37
2018-08-18T02:32:00.945Z,8.03
2018-08-18T02:34:28.481Z,7.30
2018-08-18T02:36:56.064Z,7.12
2018-08-18T02:39:23.644Z,7.35
2018-08-18T02:41:51.225Z,7.37
2018-08-18T02:44:18.744Z,7.07
2018-08-18T02:46:46.346Z,7.13
2018-08-18T02:49:13.901Z,7.50
2018-08-18T02:51:41.455Z,7.23
2018-08-18T02:54:09.019Z,7.87
2018-08-18T02:56:36.603Z,7.63
2018-08-18T02:59:04.315Z,8.67
2018-08-18T03:01:31.854Z,7.80
2018-08-18T03:07:29.506Z,7.70
2018-08-18T03:09:57.061Z,9.20
2018-08-18T03:12:24.601Z,8.50
2018-08-18T03:14:52.264Z,8.47
2018-08-18T03:17:19.871Z,7.77
2018-08-18T03:19:47.597Z,7.90
2018-08-18T03:22:15.238Z,7.33
2018-08-18T03:24:42.820Z,7.68
2018-08-18T03:27:10.524Z,8.20
2018-08-18T03:29:38.106Z,7.60
2018-08-18T03:32:05.661Z,7.47
2018-08-18T03:34:33.236Z,8.27
2018-08-18T03:37:00.845Z,7.67
2018-08-18T03:39:28.454Z,8.73
2018-08-18T03:41:56.214Z,7.50
2018-08-18T03:44:23.773Z,8.07
2018-08-18T03:46:51.447Z,7.93
2018-08-18T03:49:19.061Z,8.30
2018-08-18T03:51:46.593Z,8.83
2018-08-18T03:54:14.187Z,9.23
2018-08-18T03:56:41.960Z,9.17
2018-08-18T03:59:09.482Z,9.67
2018-08-18T04:01:37.166Z,9.30
2018-08-18T04:04:04.705Z,9.73
2018-08-18T04:06:32.282Z,8.30
2018-08-18T04:08:59.836Z,8.63
2018-08-18T04:11:27.480Z,9.03
2018-08-18T04:13:55.014Z,9.33
2018-08-18T04:16:22.626Z,9.07
2018-08-18T04:18:50.273Z,9.70
2018-08-18T04:21:17.840Z,10.80
2018-08-18T04:23:45.419Z,10.88
2018-08-18T04:26:13.036Z,10.80
2018-08-18T04:28:40.581Z,10.70
2018-08-18T04:31:08.306Z,9.70
2018-08-18T04:33:35.867Z,10.10
2018-08-18T04:36:03.449Z,9.35
2018-08-18T04:38:31.009Z,8.67
2018-08-18T04:40:58.659Z,7.75
2018-08-18T04:43:26.202Z,8.50
2018-08-18T04:45:53.759Z,8.35
2018-08-18T04:48:22.277Z,8.17
2018-08-18T04:50:49.877Z,8.90
2018-08-18T04:53:17.426Z,10.60
2018-08-18T04:55:45.005Z,8.60
2018-08-18T04:58:12.640Z,9.33
2018-08-18T05:00:40.232Z,7.97
2018-08-18T05:03:07.805Z,7.53
2018-08-18T05:05:35.350Z,8.07
2018-08-18T05:08:03.137Z,7.47
2018-08-18T05:10:30.789Z,7.40
2018-08-18T05:12:58.464Z,7.50
2018-08-18T05:15:25.978Z,6.77
2018-08-18T05:17:53.565Z,8.30
2018-08-18T05:20:21.119Z,7.17
2018-08-18T05:22:48.685Z,6.90
2018-08-18T05:25:16.281Z,6.80
2018-08-18T05:27:43.856Z,7.20
2018-08-18T05:30:11.474Z,6.57
2018-08-18T05:32:39.009Z,6.23
2018-08-18T05:35:06.738Z,7.10
2018-08-18T05:37:34.255Z,6.83
2018-08-18T05:40:01.824Z,6.90
2018-08-18T05:42:29.362Z,7.17
2018-08-18T05:44:56.956Z,7.53
2018-08-18T05:47:24.626Z,7.27
2018-08-18T05:49:52.153Z,7.03
2018-08-18T05:52:19.724Z,7.40
2018-08-18T05:54:47.296Z,8.13
2018-08-18T05:57:14.883Z,8.43
2018-08-18T05:59:42.577Z,8.17
2018-08-18T06:02:10.329Z,8.37
2018-08-18T06:04:37.889Z,9.63
2018-08-18T06:07:05.530Z,9.35
2018-08-18T06:09:33.066Z,8.63
2018-08-18T06:12:00.655Z,10.70
2018-08-18T06:14:28.194Z,9.93
2018-08-18T06:16:55.777Z,10.43
2018-08-18T06:19:23.331Z,10.40
2018-08-18T06:21:50.905Z,10.67
2018-08-18T06:24:18.447Z,10.70
2018-08-18T06:26:46.041Z,10.97
2018-08-18T06:29:13.631Z,10.57
2018-08-18T06:31:41.176Z,9.67
2018-08-18T06:34:08.748Z,9.73
2018-08-18T06:36:36.301Z,10.13
2018-08-18T06:39:03.889Z,9.85
2018-08-18T06:41:31.446Z,9.73
2018-08-18T06:43:59.057Z,8.93
2018-08-18T06:46:27.042Z,9.47
2018-08-18T06:48:54.607Z,8.73
2018-08-18T06:51:22.203Z,8.43
2018-08-18T06:53:49.754Z,8.33
2018-08-18T06:56:17.317Z,8.30
2018-08-18T06:58:44.864Z,8.60
2018-08-18T07:01:12.436Z,7.53
2018-08-18T07:03:40.134Z,6.73
2018-08-18T07:06:07.732Z,6.30
2018-08-18T07:08:35.445Z,6.20
2018-08-18T07:11:03.037Z,6.47
2018-08-18T07:13:30.586Z,6.40
2018-08-18T07:15:58.157Z,6.50
2018-08-18T07:18:25.685Z,6.20
2018-08-18T07:20:53.278Z,6.57
2018-08-18T07:23:20.846Z,5.47
2018-08-18T07:25:48.537Z,6.25
2018-08-18T07:28:16.125Z,5.70
2018-08-18T07:30:43.643Z,5.47
2018-08-18T07:33:11.208Z,4.17
2018-08-18T07:35:38.720Z,4.70
2018-08-18T07:38:06.319Z,4.37
2018-08-18T07:40:33.897Z,3.67
2018-08-18T07:43:01.472Z,4.78
2018-08-18T07:45:29.030Z,4.20
2018-08-18T07:47:56.613Z,3.77
2018-08-18T07:50:24.205Z,3.80
2018-08-18T07:52:51.779Z,3.93
2018-08-18T07:55:19.765Z,3.23
2018-08-18T07:57:47.331Z,2.80
2018-08-18T08:00:15.100Z,3.20
2018-08-18T08:02:43.569Z,3.40
2018-08-18T08:05:11.378Z,4.07
2018-08-18T08:07:39.402Z,2.70
2018-08-18T08:10:07.059Z,3.00
2018-08-18T08:12:34.905Z,2.90
2018-08-18T08:15:02.504Z,2.60
2018-08-18T08:17:30.090Z,2.50
2018-08-18T08:19:57.635Z,2.50
2018-08-18T08:22:25.840Z,1.70
2018-08-18T08:24:54.302Z,1.70
2018-08-18T08:27:22.057Z,1.97
2018-08-18T08:29:49.714Z,1.50
2018-08-18T08:32:17.422Z,2.00
2018-08-18T08:34:45.103Z,1.70
2018-08-18T08:37:12.668Z,2.20
2018-08-18T08:39:40.191Z,1.67
2018-08-18T08:42:07.782Z,2.07
2018-08-18T08:44:35.756Z,1.53
2018-08-18T08:47:03.380Z,1.90
2018-08-18T08:49:31.054Z,1.70
2018-08-18T08:51:58.848Z,4.27
2018-08-18T08:54:26.418Z,2.53
2018-08-18T08:56:53.964Z,1.90
2018-08-18T08:59:21.591Z,2.33
2018-08-18T09:01:49.593Z,2.70
2018-08-18T09:04:17.179Z,2.00
2018-08-18T09:06:44.823Z,2.07
2018-08-18T09:09:12.448Z,3.20
2018-08-18T09:11:40.204Z,3.00
2018-08-18T09:14:07.754Z,2.60
2018-08-18T09:16:35.591Z,2.63
2018-08-18T09:19:03.307Z,2.60
2018-08-18T09:21:30.972Z,2.90
2018-08-18T09:23:58.608Z,3.13
2018-08-18T09:26:26.214Z,2.80
2018-08-18T09:28:53.919Z,2.28
2018-08-18T09:31:21.502Z,3.63
2018-08-18T09:33:49.016Z,2.67
2018-08-18T09:36:16.646Z,2.75
2018-08-18T09:38:44.173Z,3.07
2018-08-18T09:41:11.790Z,3.40
2018-08-18T09:43:39.324Z,3.00
2018-08-18T09:46:07.014Z,3.00
2018-08-18T09:48:34.661Z,3.23
2018-08-18T09:51:02.183Z,3.40
2018-08-18T09:53:29.768Z,3.50
2018-08-18T09:55:57.346Z,3.30
2018-08-18T09:58:25.787Z,3.90
2018-08-18T10:00:53.414Z,3.80
2018-08-18T10:03:20.949Z,3.57
2018-08-18T10:05:48.517Z,3.77
2018-08-18T10:08:16.054Z,5.17
2018-08-18T10:10:43.653Z,4.30
2018-08-18T10:13:11.208Z,6.30
2018-08-18T10:15:38.875Z,4.50
2018-08-18T10:18:06.419Z,4.40
2018-08-18T10:20:33.986Z,3.50
2018-08-18T10:23:01.604Z,6.85
2018-08-18T10:25:29.207Z,6.03
2018-08-18T10:27:56.755Z,6.20
2018-08-18T10:30:24.329Z,5.33
2018-08-18T10:32:51.854Z,6.00
2018-08-18T10:35:19.409Z,6.37
2018-08-18T10:37:46.930Z,6.97
2018-08-18T10:40:14.485Z,5.17
2018-08-18T10:42:42.049Z,6.17
2018-08-18T10:45:09.609Z,5.00
2018-08-18T10:47:37.155Z,4.40
2018-08-18T10:50:10.557Z,5.93
2018-08-18T10:52:49.820Z,5.23
2018-08-18T10:55:17.592Z,5.67
2018-08-18T10:57:55.170Z,4.97
2018-08-18T11:00:22.967Z,4.50
2018-08-18T11:02:50.702Z,5.55
2018-08-18T11:05:18.442Z,4.63
2018-08-18T11:07:46.256Z,5.47
2018-08-18T11:10:13.809Z,5.70
2018-08-18T11:12:41.595Z,5.37
2018-08-18T11:15:09.198Z,5.10
2018-08-18T11:17:37.051Z,4.93
2018-08-18T11:20:05.081Z,5.87
2018-08-18T11:22:47.715Z,5.47
2018-08-18T11:25:15.626Z,7.43
2018-08-18T11:27:43.218Z,5.83
2018-08-18T11:30:10.942Z,5.70
2018-08-18T11:32:38.937Z,6.33
2018-08-18T11:35:06.518Z,5.23
2018-08-18T11:37:34.220Z,5.70
2018-08-18T11:40:01.749Z,6.50
2018-08-18T11:42:29.350Z,5.73
2018-08-18T11:44:56.878Z,4.50
2018-08-18T11:47:24.629Z,4.53
2018-08-18T11:49:52.261Z,7.13
2018-08-18T11:52:19.814Z,5.47
2018-08-18T11:54:47.416Z,5.90
2018-08-18T11:57:14.964Z,6.00
2018-08-18T11:59:42.575Z,6.00
2018-08-18T12:02:10.219Z,6.60
2018-08-18T12:04:37.769Z,5.70
2018-08-18T12:07:05.446Z,6.20
2018-08-18T12:09:32.998Z,6.13
2018-08-18T12:12:00.569Z,6.53
2018-08-18T12:14:28.139Z,5.67
2018-08-18T12:16:55.674Z,6.33
2018-08-18T12:19:23.217Z,5.10
2018-08-18T12:21:50.812Z,5.23
2018-08-18T12:24:18.361Z,5.77
2018-08-18T12:26:45.961Z,6.37
2018-08-18T12:29:13.518Z,6.40
2018-08-18T12:31:41.094Z,6.67
2018-08-18T12:34:08.800Z,6.53
2018-08-18T12:36:36.456Z,6.30
2018-08-18T12:39:03.945Z,6.85
2018-08-18T12:41:31.630Z,5.32
2018-08-18T12:43:59.161Z,5.60
2018-08-18T12:46:26.708Z,5.60
2018-08-18T12:48:54.363Z,6.37
2018-08-18T12:51:21.966Z,7.33
2018-08-18T12:53:49.734Z,5.60
2018-08-18T12:56:17.289Z,5.87
2018-08-18T12:58:44.920Z,5.25
2018-08-18T13:01:12.505Z,4.97
2018-08-18T13:03:40.067Z,4.03
2018-08-18T13:06:07.610Z,5.77
2018-08-18T13:08:35.410Z,6.40
2018-08-18T13:11:02.959Z,5.93
2018-08-18T13:13:30.526Z,6.07
2018-08-18T13:15:58.122Z,5.10
2018-08-18T13:18:25.725Z,4.60
2018-08-18T13:20:53.357Z,5.20
2018-08-18T13:23:20.861Z,4.80
2018-08-18T13:25:48.436Z,5.20
2018-08-18T13:28:15.962Z,4.90
2018-08-18T13:30:43.793Z,4.67
2018-08-18T13:33:11.367Z,4.73
2018-08-18T13:35:38.971Z,5.80
2018-08-18T13:38:06.484Z,5.60
2018-08-18T13:40:34.165Z,3.70
2018-08-18T13:43:01.737Z,3.63
2018-08-18T13:45:29.301Z,5.53
2018-08-18T13:47:56.887Z,5.17
2018-08-18T13:50:24.607Z,5.20
2018-08-18T13:52:52.219Z,4.17
2018-08-18T13:55:19.891Z,5.10
2018-08-18T13:57:47.479Z,4.07
2018-08-18T14:00:15.078Z,4.57
2018-08-18T14:02:42.601Z,4.57
2018-08-18T14:05:10.340Z,3.80
2018-08-18T14:07:37.906Z,5.40
2018-08-18T14:10:05.536Z,3.67
2018-08-18T14:12:33.070Z,3.07
2018-08-18T14:15:00.801Z,3.50
2018-08-18T14:17:28.423Z,2.60
2018-08-18T14:19:56.008Z,3.03
2018-08-18T14:22:23.618Z,2.70
2018-08-18T14:24:51.183Z,2.90
2018-08-18T14:27:19.105Z,3.33
2018-08-18T14:29:46.660Z,3.10
2018-08-18T14:32:14.287Z,2.67
2018-08-18T14:34:41.952Z,3.13
2018-08-18T14:37:09.568Z,3.10
2018-08-18T14:39:37.161Z,3.17
2018-08-18T14:42:04.684Z,3.33
2018-08-18T14:44:32.434Z,3.20
2018-08-18T14:46:59.964Z,2.30
2018-08-18T14:49:27.541Z,2.70
2018-08-18T14:51:55.091Z,2.67
2018-08-18T14:54:22.937Z,2.20
2018-08-18T14:56:50.472Z,2.60
2018-08-18T14:59:18.101Z,2.40
2018-08-18T15:01:46.019Z,2.60
2018-08-18T15:04:14.100Z,3.40
2018-08-18T15:06:43.660Z,3.00
2018-08-18T15:09:11.702Z,2.73
2018-08-18T15:11:40.036Z,2.57
2018-08-18T15:14:07.848Z,3.20
2018-08-18T15:16:35.399Z,3.20
2018-08-18T15:19:03.017Z,2.90
2018-08-18T15:21:30.631Z,3.10
2018-08-18T15:23:58.258Z,2.63
2018-08-18T15:26:26.077Z,2.50
2018-08-18T15:28:53.784Z,3.00
2018-08-18T15:31:21.359Z,3.40
2018-08-18T15:33:48.930Z,2.90
2018-08-18T15:36:16.601Z,3.00
2018-08-18T15:38:44.603Z,2.90
2018-08-18T15:41:12.139Z,2.80
2018-08-18T15:43:39.704Z,2.80
2018-08-18T15:46:07.267Z,2.63
2018-08-18T15:48:35.252Z,2.43
2018-08-18T15:51:02.851Z,2.72
2018-08-18T15:53:30.505Z,2.47
2018-08-18T15:55:58.130Z,2.40
2018-08-18T15:58:25.719Z,2.80
2018-08-18T16:00:53.283Z,2.60
2018-08-18T16:03:20.818Z,2.30
2018-08-18T16:05:48.404Z,2.43
2018-08-18T16:08:16.259Z,2.33
2018-08-18T16:10:43.888Z,2.53
2018-08-18T16:13:11.402Z,2.33
2018-08-18T16:15:39.456Z,2.37
2018-08-18T16:18:07.054Z,2.30
2018-08-18T16:20:34.662Z,2.47
2018-08-18T16:23:02.248Z,2.80
2018-08-18T16:25:29.903Z,2.53
2018-08-18T16:27:57.552Z,2.20
2018-08-18T16:30:25.091Z,2.57
2018-08-18T16:32:52.874Z,2.20
2018-08-18T16:35:20.518Z,2.70
2018-08-18T16:37:48.129Z,2.33
2018-08-18T16:40:15.900Z,2.60
2018-08-18T16:42:43.685Z,2.37
2018-08-18T16:45:11.435Z,2.20
2018-08-18T16:47:39.199Z,2.50
2018-08-18T16:50:06.807Z,2.80
2018-08-18T16:52:34.426Z,2.43
2018-08-18T16:55:02.012Z,2.33
2018-08-18T16:57:29.555Z,2.00
2018-08-18T16:59:57.289Z,2.53
2018-08-18T17:02:25.181Z,2.10
2018-08-18T17:04:52.993Z,2.43
2018-08-18T17:07:20.832Z,2.10
2018-08-18T17:09:48.501Z,2.33
2018-08-18T17:12:16.086Z,2.40
2018-08-18T17:14:44.047Z,2.05
2018-08-18T17:17:11.762Z,2.63
2018-08-18T17:19:39.353Z,2.17
2018-08-18T17:22:06.888Z,2.40
2018-08-18T17:24:34.458Z,2.30
2018-08-18T17:27:02.139Z,1.97
2018-08-18T17:29:29.674Z,2.10
2018-08-18T17:31:57.194Z,2.13
2018-08-18T17:34:24.936Z,2.00
2018-08-18T17:36:52.463Z,2.10
2018-08-18T17:39:20.222Z,2.03
2018-08-18T17:41:47.793Z,2.73
2018-08-18T17:44:15.328Z,2.10
2018-08-18T17:46:42.896Z,2.10
2018-08-18T17:49:10.477Z,2.20
2018-08-18T17:51:38.092Z,2.70
2018-08-18T17:54:05.630Z,2.30
2018-08-18T17:56:33.310Z,2.70
2018-08-18T17:59:00.857Z,2.43
2018-08-18T18:01:28.532Z,2.30
2018-08-18T18:03:56.134Z,2.50
2018-08-18T18:06:23.827Z,2.23
2018-08-18T18:08:52.483Z,2.27
2018-08-18T18:11:20.154Z,2.30
2018-08-18T18:13:47.999Z,2.43
2018-08-18T18:16:15.897Z,2.03
2018-08-18T18:18:43.527Z,2.60
2018-08-18T18:21:11.110Z,2.43
2018-08-18T18:23:39.404Z,2.33
2018-08-18T18:26:07.235Z,2.60
2018-08-18T18:28:34.780Z,2.53
2018-08-18T18:31:02.625Z,2.28
2018-08-18T18:33:30.504Z,2.57
2018-08-18T18:35:58.802Z,2.83
2018-08-18T18:38:26.332Z,2.90
2018-08-18T18:40:54.039Z,2.60
2018-08-18T18:43:21.643Z,3.07
2018-08-18T18:45:49.276Z,2.70
2018-08-18T18:48:16.815Z,3.23
2018-08-18T18:50:44.421Z,3.40
2018-08-18T18:53:12.017Z,3.60
2018-08-18T18:55:39.729Z,2.93
2018-08-18T18:58:07.266Z,2.97
2018-08-18T19:00:34.878Z,3.50
2018-08-18T19:03:02.477Z,3.85
2018-08-18T19:05:30.111Z,3.67
2018-08-18T19:07:57.956Z,3.90
2018-08-18T19:10:26.041Z,3.27
2018-08-18T19:12:53.675Z,3.73
2018-08-18T19:15:21.593Z,4.20
2018-08-18T19:17:49.236Z,4.17
2018-08-18T19:20:17.036Z,4.13
2018-08-18T19:22:44.711Z,3.80
2018-08-18T19:25:12.286Z,4.10
2018-08-18T19:27:40.038Z,3.87
2018-08-18T19:30:07.635Z,3.83
2018-08-18T19:32:35.223Z,4.13
2018-08-18T19:35:02.780Z,4.60
2018-08-18T19:37:30.513Z,4.40
2018-08-18T19:39:58.050Z,4.00
2018-08-18T19:42:25.633Z,4.07
2018-08-18T19:44:53.172Z,3.50
2018-08-18T19:47:20.730Z,4.10
2018-08-18T19:49:48.354Z,4.10
2018-08-18T19:52:16.201Z,4.12
2018-08-18T19:54:43.872Z,4.80
2018-08-18T19:57:11.464Z,4.87
2018-08-18T19:59:39.115Z,4.20
2018-08-18T20:02:06.667Z,4.47
2018-08-18T20:04:34.229Z,4.87
2018-08-18T20:07:01.838Z,4.82
2018-08-18T20:09:29.598Z,4.70
2018-08-18T20:11:57.348Z,4.80
2018-08-18T20:14:25.142Z,4.87
2018-08-18T20:16:52.945Z,4.40
2018-08-18T20:19:20.637Z,4.60
2018-08-18T20:21:48.386Z,5.47
2018-08-18T20:24:15.938Z,5.40
2018-08-18T20:26:43.661Z,5.10
2018-08-18T20:29:11.438Z,5.23
2018-08-18T20:31:39.173Z,5.40
2018-08-18T20:34:06.749Z,5.37
2018-08-18T20:36:34.450Z,5.23
2018-08-18T20:39:01.981Z,6.23
2018-08-18T20:41:29.629Z,5.37
2018-08-18T20:43:57.388Z,5.37
2018-08-18T20:46:25.185Z,5.47
2018-08-18T20:48:52.851Z,4.90
2018-08-18T20:51:20.321Z,5.20
2018-08-18T20:53:47.922Z,5.67
2018-08-18T20:56:15.645Z,5.63
2018-08-18T20:58:43.195Z,4.97
2018-08-18T21:01:10.866Z,5.47
2018-08-18T21:03:38.624Z,5.53
2018-08-18T21:06:06.569Z,5.87
2018-08-18T21:08:34.158Z,5.57
2018-08-18T21:11:01.881Z,5.03
2018-08-18T21:13:29.484Z,5.53
2018-08-18T21:15:57.095Z,5.50
2018-08-18T21:18:24.673Z,5.37
2018-08-18T21:20:52.477Z,5.77
2018-08-18T21:23:20.176Z,5.30
2018-08-18T21:25:47.922Z,5.87
2018-08-18T21:28:15.729Z,5.80
2018-08-18T21:30:43.412Z,6.07
2018-08-18T21:33:11.273Z,5.00
2018-08-18T21:35:38.890Z,5.77
2018-08-18T21:38:06.411Z,5.17
2018-08-18T21:40:34.223Z,4.97
2018-08-18T21:43:01.971Z,5.50
2018-08-18T21:45:29.557Z,5.33
2018-08-18T21:47:57.139Z,5.03
2018-08-18T21:50:24.723Z,5.37
2018-08-18T21:52:52.391Z,5.23
2018-08-18T21:55:19.909Z,5.30
2018-08-18T21:57:47.487Z,5.03
2018-08-18T22:00:15.084Z,5.10
2018-08-18T22:02:42.661Z,5.37
2018-08-18T22:05:10.181Z,4.87
2018-08-18T22:07:37.784Z,5.47
2018-08-18T22:10:05.375Z,5.37
2018-08-18T22:12:32.965Z,5.73
2018-08-18T22:15:00.815Z,5.87
2018-08-18T22:17:28.391Z,5.93
2018-08-18T22:19:56.347Z,6.43
2018-08-18T22:22:24.077Z,6.17
2018-08-18T22:24:51.653Z,6.33
2018-08-18T22:27:21.531Z,6.43
2018-08-18T22:29:49.123Z,6.90
2018-08-18T22:32:16.651Z,7.27
2018-08-18T22:34:44.518Z,6.83
2018-08-18T22:37:12.067Z,6.53
2018-08-18T22:39:39.624Z,6.97
2018-08-18T22:42:07.199Z,7.00
2018-08-18T22:44:34.772Z,6.47
2018-08-18T22:47:02.385Z,6.83
2018-08-18T22:49:29.928Z,7.30
2018-08-18T22:51:58.721Z,7.50
2018-08-18T22:54:26.295Z,6.97
2018-08-18T22:56:53.970Z,6.77
2018-08-18T22:59:21.542Z,7.03
2018-08-18T23:01:49.239Z,6.93
2018-08-18T23:04:16.837Z,6.87
2018-08-18T23:06:44.397Z,6.63
2018-08-18T23:09:12.015Z,6.57
2018-08-18T23:11:39.595Z,7.07
2018-08-18T23:14:07.119Z,6.93
2018-08-18T23:16:37.869Z,6.80
2018-08-18T23:19:05.411Z,7.47
2018-08-18T23:21:32.979Z,7.63
2018-08-18T23:24:00.527Z,7.60
2018-08-18T23:26:28.168Z,7.40
2018-08-18T23:28:55.720Z,7.30
2018-08-18T23:31:23.248Z,7.30
2018-08-18T23:33:50.843Z,8.00
2018-08-18T23:36:18.378Z,7.67
2018-08-18T23:38:46.087Z,7.53
2018-08-18T23:41:13.624Z,7.50
2018-08-18T23:43:41.201Z,7.40
2018-08-18T23:46:08.757Z,7.57
2018-08-18T23:48:36.334Z,7.30
2018-08-18T23:51:04.014Z,7.10
2018-08-18T23:53:31.589Z,7.00
2018-08-18T23:55:59.169Z,7.37
2018-08-18T23:58:26.731Z,7.82
